sensor_id;sensor_type;location;lat;lon;timestamp;pressure;altitude;pressure_sealevel;temperature;humidity
70434;BME280;57876;47.792;12.960;2023-02-11T00:02:02;98678.88;;;15.55;38.91
70434;BME280;57876;47.792;12.960;2023-02-11T00:04:28;98678.63;;;15.56;38.71
70434;BME280;57876;47.792;12.960;2023-02-11T00:06:52;98684.88;;;15.57;38.62
70434;BME280;57876;47.792;12.960;2023-02-11T00:09:18;98673.72;;;15.53;39.11
70434;BME280;57876;47.792;12.960;2023-02-11T00:11:42;98670.44;;;15.51;38.84
70434;BME280;57876;47.792;12.960;2023-02-11T00:14:08;98666.34;;;15.49;38.80
70434;BME280;57876;47.792;12.960;2023-02-11T00:16:33;98669.63;;;15.51;38.66
70434;BME280;57876;47.792;12.960;2023-02-11T00:19:02;98663.03;;;15.47;38.87
70434;BME280;57876;47.792;12.960;2023-02-11T00:21:27;98672.84;;;15.48;38.86
70434;BME280;57876;47.792;12.960;2023-02-11T00:23:52;98669.84;;;15.44;38.82
70434;BME280;57876;47.792;12.960;2023-02-11T00:26:23;98672.59;;;15.44;38.82
70434;BME280;57876;47.792;12.960;2023-02-11T00:28:48;98669.84;;;15.44;38.93
70434;BME280;57876;47.792;12.960;2023-02-11T00:31:15;98674.50;;;15.44;38.81
70434;BME280;57876;47.792;12.960;2023-02-11T00:33:40;98670.97;;;15.43;38.70
70434;BME280;57876;47.792;12.960;2023-02-11T00:36:07;98668.22;;;15.38;38.85
70434;BME280;57876;47.792;12.960;2023-02-11T00:38:32;98662.75;;;15.33;38.82
70434;BME280;57876;47.792;12.960;2023-02-11T00:40:56;98667.91;;;15.34;39.07
70434;BME280;57876;47.792;12.960;2023-02-11T00:43:20;98673.66;;;15.33;38.81
70434;BME280;57876;47.792;12.960;2023-02-11T00:45:45;98686.75;;;15.36;38.83
70434;BME280;57876;47.792;12.960;2023-02-11T00:48:09;98674.72;;;15.32;38.87
70434;BME280;57876;47.792;12.960;2023-02-11T00:50:33;98677.19;;;15.33;38.68
70434;BME280;57876;47.792;12.960;2023-02-11T00:52:58;98671.47;;;15.30;39.02
70434;BME280;57876;47.792;12.960;2023-02-11T00:55:22;98682.91;;;15.32;38.81
70434;BME280;57876;47.792;12.960;2023-02-11T00:57:47;98676.13;;;15.29;38.89
70434;BME280;57876;47.792;12.960;2023-02-11T01:00:13;98676.94;;;15.30;38.91
70434;BME280;57876;47.792;12.960;2023-02-11T01:02:37;98672.53;;;15.29;38.84
70434;BME280;57876;47.792;12.960;2023-02-11T01:05:03;98666.25;;;15.23;38.71
70434;BME280;57876;47.792;12.960;2023-02-11T01:07:27;98668.72;;;15.25;38.90
70434;BME280;57876;47.792;12.960;2023-02-11T01:09:52;98659.44;;;15.20;38.83
70434;BME280;57876;47.792;12.960;2023-02-11T01:12:17;98647.97;;;15.18;38.79
70434;BME280;57876;47.792;12.960;2023-02-11T01:14:41;98660.53;;;15.19;38.77
70434;BME280;57876;47.792;12.960;2023-02-11T01:17:06;98649.63;;;15.14;38.73
70434;BME280;57876;47.792;12.960;2023-02-11T01:19:30;98662.16;;;15.20;38.64
70434;BME280;57876;47.792;12.960;2023-02-11T01:21:54;98653.44;;;15.18;38.99
70434;BME280;57876;47.792;12.960;2023-02-11T01:24:19;98655.63;;;15.16;38.70
70434;BME280;57876;47.792;12.960;2023-02-11T01:26:43;98662.72;;;15.17;39.26
70434;BME280;57876;47.792;12.960;2023-02-11T01:29:07;98660.53;;;15.14;38.84
70434;BME280;57876;47.792;12.960;2023-02-11T01:31:32;98660.28;;;15.16;38.98
70434;BME280;57876;47.792;12.960;2023-02-11T01:33:57;98664.34;;;15.13;38.65
70434;BME280;57876;47.792;12.960;2023-02-11T01:36:21;98652.88;;;15.11;39.01
70434;BME280;57876;47.792;12.960;2023-02-11T01:38:45;98659.97;;;15.12;38.82
70434;BME280;57876;47.792;12.960;2023-02-11T01:41:12;98654.53;;;15.12;38.76
70434;BME280;57876;47.792;12.960;2023-02-11T01:43:44;98654.25;;;15.09;38.74
70434;BME280;57876;47.792;12.960;2023-02-11T01:51:49;98647.13;;;15.08;38.82
70434;BME280;57876;47.792;12.960;2023-02-11T01:54:18;98647.16;;;15.03;38.77
70434;BME280;57876;47.792;12.960;2023-02-11T01:57:03;98651.50;;;15.04;38.74
70434;BME280;57876;47.792;12.960;2023-02-11T02:00:10;98648.78;;;15.04;38.81
70434;BME280;57876;47.792;12.960;2023-02-11T02:05:41;98644.69;;;15.01;38.70
70434;BME280;57876;47.792;12.960;2023-02-11T02:08:34;98645.78;;;15.00;38.75
70434;BME280;57876;47.792;12.960;2023-02-11T02:10:59;98637.31;;;14.96;38.77
70434;BME280;57876;47.792;12.960;2023-02-11T02:13:24;98633.75;;;14.96;38.74
70434;BME280;57876;47.792;12.960;2023-02-11T02:16:00;98638.13;;;14.97;38.87
70434;BME280;57876;47.792;12.960;2023-02-11T02:32:31;98638.09;;;14.92;38.97
70434;BME280;57876;47.792;12.960;2023-02-11T02:40:38;98621.75;;;14.92;38.81
70434;BME280;57876;47.792;12.960;2023-02-11T02:43:06;98619.88;;;14.92;38.85
70434;BME280;57876;47.792;12.960;2023-02-11T02:45:32;98618.22;;;14.96;39.02
70434;BME280;57876;47.792;12.960;2023-02-11T02:47:57;98609.25;;;14.96;38.69
70434;BME280;57876;47.792;12.960;2023-02-11T02:50:27;98610.88;;;15.02;38.79
70434;BME280;57876;47.792;12.960;2023-02-11T03:00:57;98617.47;;;15.16;38.65
70434;BME280;57876;47.792;12.960;2023-02-11T03:06:26;98613.66;;;15.23;38.94
70434;BME280;57876;47.792;12.960;2023-02-11T03:09:02;98606.03;;;15.19;38.74
70434;BME280;57876;47.792;12.960;2023-02-11T03:11:29;98603.31;;;15.25;38.63
70434;BME280;57876;47.792;12.960;2023-02-11T03:13:55;98596.75;;;15.26;38.62
70434;BME280;57876;47.792;12.960;2023-02-11T03:16:24;98584.22;;;15.25;38.86
70434;BME280;57876;47.792;12.960;2023-02-11T03:18:56;98579.31;;;15.22;38.69
70434;BME280;57876;47.792;12.960;2023-02-11T03:21:23;98588.59;;;15.26;38.93
70434;BME280;57876;47.792;12.960;2023-02-11T03:23:52;98591.06;;;15.27;38.63
70434;BME280;57876;47.792;12.960;2023-02-11T03:26:23;98595.16;;;15.30;38.90
70434;BME280;57876;47.792;12.960;2023-02-11T03:29:02;98592.69;;;15.33;38.75
70434;BME280;57876;47.792;12.960;2023-02-11T03:34:12;98583.16;;;15.36;38.53
70434;BME280;57876;47.792;12.960;2023-02-11T03:36:51;98586.97;;;15.35;38.53
70434;BME280;57876;47.792;12.960;2023-02-11T03:39:26;98589.97;;;15.38;38.70
70434;BME280;57876;47.792;12.960;2023-02-11T03:41:54;98587.25;;;15.38;38.61
70434;BME280;57876;47.792;12.960;2023-02-11T03:44:23;98590.78;;;15.39;38.54
70434;BME280;57876;47.792;12.960;2023-02-11T03:46:50;98592.69;;;15.38;38.71
70434;BME280;57876;47.792;12.960;2023-02-11T03:49:23;98588.06;;;15.39;38.52
70434;BME280;57876;47.792;12.960;2023-02-11T03:51:52;98573.88;;;15.37;39.02
70434;BME280;57876;47.792;12.960;2023-02-11T03:54:22;98583.16;;;15.41;38.50
70434;BME280;57876;47.792;12.960;2023-02-11T03:56:52;98576.06;;;15.40;38.73
70434;BME280;57876;47.792;12.960;2023-02-11T03:59:17;98569.53;;;15.41;38.88
70434;BME280;57876;47.792;12.960;2023-02-11T04:01:41;98578.78;;;15.45;38.61
70434;BME280;57876;47.792;12.960;2023-02-11T04:04:05;98566.78;;;15.46;38.69
70434;BME280;57876;47.792;12.960;2023-02-11T04:06:30;98559.69;;;15.45;38.46
70434;BME280;57876;47.792;12.960;2023-02-11T04:08:54;98563.53;;;15.49;38.92
70434;BME280;57876;47.792;12.960;2023-02-11T04:11:19;98553.72;;;15.48;38.78
70434;BME280;57876;47.792;12.960;2023-02-11T04:13:43;98549.88;;;15.49;38.80
70434;BME280;57876;47.792;12.960;2023-02-11T04:16:08;98559.69;;;15.50;38.79
70434;BME280;57876;47.792;12.960;2023-02-11T04:18:32;98562.16;;;15.47;38.82
70434;BME280;57876;47.792;12.960;2023-02-11T04:20:57;98563.50;;;15.44;38.98
70434;BME280;57876;47.792;12.960;2023-02-11T04:23:21;98565.69;;;15.47;38.91
70434;BME280;57876;47.792;12.960;2023-02-11T04:25:45;98565.44;;;15.49;38.64
70434;BME280;57876;47.792;12.960;2023-02-11T04:28:10;98562.41;;;15.50;38.84
70434;BME280;57876;47.792;12.960;2023-02-11T04:30:34;98562.41;;;15.50;38.82
70434;BME280;57876;47.792;12.960;2023-02-11T04:32:58;98565.69;;;15.52;38.74
70434;BME280;57876;47.792;12.960;2023-02-11T04:35:23;98570.88;;;15.54;38.58
70434;BME280;57876;47.792;12.960;2023-02-11T04:37:47;98561.91;;;15.53;38.52
70434;BME280;57876;47.792;12.960;2023-02-11T04:40:12;98563.53;;;15.54;38.54
70434;BME280;57876;47.792;12.960;2023-02-11T04:42:36;98568.16;;;15.54;38.41
70434;BME280;57876;47.792;12.960;2023-02-11T04:45:01;98563.53;;;15.49;38.46
70434;BME280;57876;47.792;12.960;2023-02-11T04:47:25;98548.78;;;15.45;38.86
70434;BME280;57876;47.792;12.960;2023-02-11T04:49:49;98551.50;;;15.45;38.82
70434;BME280;57876;47.792;12.960;2023-02-11T04:52:14;98545.25;;;15.45;38.59
70434;BME280;57876;47.792;12.960;2023-02-11T04:54:38;98540.88;;;15.44;38.89
70434;BME280;57876;47.792;12.960;2023-02-11T04:57:03;98556.69;;;15.52;38.78
70434;BME280;57876;47.792;12.960;2023-02-11T04:59:28;98552.06;;;15.47;38.61
70434;BME280;57876;47.792;12.960;2023-02-11T05:01:52;98533.53;;;15.39;38.76
70434;BME280;57876;47.792;12.960;2023-02-11T05:04:17;98540.34;;;15.47;38.71
70434;BME280;57876;47.792;12.960;2023-02-11T05:06:41;98545.78;;;15.52;38.59
70434;BME280;57876;47.792;12.960;2023-02-11T05:09:06;98533.78;;;15.48;38.56
70434;BME280;57876;47.792;12.960;2023-02-11T05:11:31;98543.63;;;15.54;38.63
70434;BME280;57876;47.792;12.960;2023-02-11T05:13:55;98534.88;;;15.52;38.45
70434;BME280;57876;47.792;12.960;2023-02-11T05:16:19;98552.06;;;15.57;38.69
70434;BME280;57876;47.792;12.960;2023-02-11T05:18:44;98550.97;;;15.58;38.50
70434;BME280;57876;47.792;12.960;2023-02-11T05:21:12;98570.03;;;15.58;38.75
70434;BME280;57876;47.792;12.960;2023-02-11T05:23:38;98577.16;;;15.59;38.56
70434;BME280;57876;47.792;12.960;2023-02-11T05:26:02;98574.69;;;15.58;38.56
70434;BME280;57876;47.792;12.960;2023-02-11T05:28:28;98588.88;;;15.60;38.74
70434;BME280;57876;47.792;12.960;2023-02-11T05:30:52;98590.25;;;15.57;38.85
70434;BME280;57876;47.792;12.960;2023-02-11T05:33:17;98595.44;;;15.59;38.47
70434;BME280;57876;47.792;12.960;2023-02-11T05:35:41;98579.63;;;15.51;38.75
70434;BME280;57876;47.792;12.960;2023-02-11T05:38:05;98590.25;;;15.57;38.90
70434;BME280;57876;47.792;12.960;2023-02-11T05:40:30;98590.50;;;15.61;38.65
70434;BME280;57876;47.792;12.960;2023-02-11T05:42:54;98579.34;;;15.62;38.52
70434;BME280;57876;47.792;12.960;2023-02-11T05:45:19;98582.06;;;15.68;38.82
70434;BME280;57876;47.792;12.960;2023-02-11T05:47:43;98589.16;;;15.69;38.48
70434;BME280;57876;47.792;12.960;2023-02-11T05:50:08;98581.53;;;15.71;38.92
70434;BME280;57876;47.792;12.960;2023-02-11T05:52:32;98585.38;;;15.75;38.51
70434;BME280;57876;47.792;12.960;2023-02-11T05:54:56;98576.91;;;15.76;38.55
70434;BME280;57876;47.792;12.960;2023-02-11T05:57:21;98574.72;;;15.78;38.87
70434;BME280;57876;47.792;12.960;2023-02-11T05:59:45;98573.91;;;15.83;38.52
70434;BME280;57876;47.792;12.960;2023-02-11T06:02:09;98571.16;;;15.83;38.61
70434;BME280;57876;47.792;12.960;2023-02-11T06:04:35;98559.97;;;15.90;38.74
70434;BME280;57876;47.792;12.960;2023-02-11T06:07:00;98556.16;;;15.91;38.47
70434;BME280;57876;47.792;12.960;2023-02-11T06:09:25;98550.94;;;15.94;38.62
70434;BME280;57876;47.792;12.960;2023-02-11T06:11:49;98544.94;;;15.97;38.75
70434;BME280;57876;47.792;12.960;2023-02-11T06:14:14;98552.31;;;16.02;38.55
70434;BME280;57876;47.792;12.960;2023-02-11T06:16:38;98546.56;;;16.03;38.87
70434;BME280;57876;47.792;12.960;2023-02-11T06:19:03;98543.28;;;16.06;38.40
70434;BME280;57876;47.792;12.960;2023-02-11T06:21:27;98552.53;;;16.11;38.81
70434;BME280;57876;47.792;12.960;2023-02-11T06:23:52;98550.94;;;16.10;38.13
70434;BME280;57876;47.792;12.960;2023-02-11T06:26:20;98556.94;;;16.12;38.64
70434;BME280;57876;47.792;12.960;2023-02-11T06:28:45;98554.47;;;16.10;38.96
70434;BME280;57876;47.792;12.960;2023-02-11T06:31:09;98540.81;;;16.10;38.52
70434;BME280;57876;47.792;12.960;2023-02-11T06:33:38;98549.25;;;16.14;38.60
70434;BME280;57876;47.792;12.960;2023-02-11T06:36:03;98535.91;;;16.07;38.65
70434;BME280;57876;47.792;12.960;2023-02-11T06:38:28;98556.63;;;16.13;38.70
70434;BME280;57876;47.792;12.960;2023-02-11T06:40:52;98565.91;;;16.17;38.52
70434;BME280;57876;47.792;12.960;2023-02-11T06:43:17;98565.91;;;16.17;38.55
70434;BME280;57876;47.792;12.960;2023-02-11T06:45:41;98579.56;;;16.17;38.91
70434;BME280;57876;47.792;12.960;2023-02-11T06:48:06;98574.38;;;16.21;38.91
70434;BME280;57876;47.792;12.960;2023-02-11T06:52:59;98574.97;;;17.61;42.19
70434;BME280;57876;47.792;12.960;2023-02-11T06:55:24;98578.38;;;17.48;41.66
70434;BME280;57876;47.792;12.960;2023-02-11T06:57:48;98586.41;;;17.34;40.97
70434;BME280;57876;47.792;12.960;2023-02-11T07:00:13;98582.16;;;17.18;40.89
70434;BME280;57876;47.792;12.960;2023-02-11T07:02:38;98577.81;;;17.07;40.19
70434;BME280;57876;47.792;12.960;2023-02-11T07:05:04;98577.06;;;16.96;40.37
70434;BME280;57876;47.792;12.960;2023-02-11T07:07:29;98578.47;;;16.88;40.25
70434;BME280;57876;47.792;12.960;2023-02-11T07:09:55;98577.69;;;16.83;39.85
70434;BME280;57876;47.792;12.960;2023-02-11T07:12:20;98574.16;;;16.77;39.58
70434;BME280;57876;47.792;12.960;2023-02-11T07:14:44;98574.16;;;16.72;39.60
70434;BME280;57876;47.792;12.960;2023-02-11T07:17:11;98573.91;;;16.68;39.21
70434;BME280;57876;47.792;12.960;2023-02-11T07:19:38;98566.84;;;16.62;39.25
70434;BME280;57876;47.792;12.960;2023-02-11T07:22:03;98571.47;;;16.62;39.12
70434;BME280;57876;47.792;12.960;2023-02-11T07:24:27;98572.84;;;16.59;39.31
70434;BME280;57876;47.792;12.960;2023-02-11T07:26:53;98578.59;;;16.58;39.13
70434;BME280;57876;47.792;12.960;2023-02-11T07:29:17;98586.50;;;16.59;39.17
70434;BME280;57876;47.792;12.960;2023-02-11T07:31:42;98589.00;;;16.56;39.16
70434;BME280;57876;47.792;12.960;2023-02-11T07:34:06;98588.19;;;16.55;39.46
70434;BME280;57876;47.792;12.960;2023-02-11T07:36:31;98596.06;;;16.57;39.18
70434;BME280;57876;47.792;12.960;2023-02-11T07:38:56;98589.53;;;16.58;38.84
70434;BME280;57876;47.792;12.960;2023-02-11T07:41:22;98579.97;;;16.55;38.90
70434;BME280;57876;47.792;12.960;2023-02-11T07:43:47;98585.69;;;16.59;39.24
70434;BME280;57876;47.792;12.960;2023-02-11T07:46:15;98567.69;;;16.58;38.60
70434;BME280;57876;47.792;12.960;2023-02-11T07:48:40;98582.41;;;16.62;39.03
70434;BME280;57876;47.792;12.960;2023-02-11T07:51:09;98579.94;;;16.65;38.90
70434;BME280;57876;47.792;12.960;2023-02-11T07:53:34;98575.00;;;16.67;39.04
70434;BME280;57876;47.792;12.960;2023-02-11T07:55:59;98572.56;;;16.66;38.64
70434;BME280;57876;47.792;12.960;2023-02-11T07:58:23;98577.72;;;16.67;38.51
70434;BME280;57876;47.792;12.960;2023-02-11T08:00:47;98590.31;;;16.68;38.77
70434;BME280;57876;47.792;12.960;2023-02-11T08:03:12;98590.31;;;16.68;38.56
70434;BME280;57876;47.792;12.960;2023-02-11T08:05:37;98599.31;;;16.69;38.52
70434;BME280;57876;47.792;12.960;2023-02-11T08:08:02;98594.97;;;16.63;38.73
70434;BME280;57876;47.792;12.960;2023-02-11T08:10:26;98599.31;;;16.69;38.68
70434;BME280;57876;47.792;12.960;2023-02-11T08:12:51;98591.38;;;16.67;38.88
70434;BME280;57876;47.792;12.960;2023-02-11T08:15:17;98578.56;;;16.68;38.69
70434;BME280;57876;47.792;12.960;2023-02-11T08:17:41;98578.28;;;16.69;38.66
70434;BME280;57876;47.792;12.960;2023-02-11T08:20:06;98557.53;;;16.63;38.33
70434;BME280;57876;47.792;12.960;2023-02-11T08:22:31;98558.56;;;16.72;38.56
70434;BME280;57876;47.792;12.960;2023-02-11T08:24:56;98537.03;;;16.66;38.52
70434;BME280;57876;47.792;12.960;2023-02-11T08:27:21;98549.56;;;16.72;38.31
70434;BME280;57876;47.792;12.960;2023-02-11T08:29:48;98555.59;;;16.69;38.40
70434;BME280;57876;47.792;12.960;2023-02-11T08:32:13;98554.50;;;16.70;38.29
70434;BME280;57876;47.792;12.960;2023-02-11T08:34:37;98551.75;;;16.70;38.69
70434;BME280;57876;47.792;12.960;2023-02-11T08:37:01;98538.63;;;16.72;38.30
70434;BME280;57876;47.792;12.960;2023-02-11T08:39:26;98544.91;;;16.78;38.45
70434;BME280;57876;47.792;12.960;2023-02-11T08:41:53;98555.59;;;16.79;38.35
70434;BME280;57876;47.792;12.960;2023-02-11T08:44:20;98561.06;;;16.79;38.67
70434;BME280;57876;47.792;12.960;2023-02-11T08:46:45;98557.78;;;16.77;38.62
70434;BME280;57876;47.792;12.960;2023-02-11T08:49:10;98557.78;;;16.77;38.71
70434;BME280;57876;47.792;12.960;2023-02-11T08:51:34;98561.31;;;16.78;38.52
70434;BME280;57876;47.792;12.960;2023-02-11T08:53:59;98557.78;;;16.77;38.36
70434;BME280;57876;47.792;12.960;2023-02-11T08:56:25;98556.94;;;16.77;38.31
70434;BME280;57876;47.792;12.960;2023-02-11T08:58:50;98557.19;;;16.75;37.95
70434;BME280;57876;47.792;12.960;2023-02-11T09:01:19;98556.13;;;16.76;38.42
70434;BME280;57876;47.792;12.960;2023-02-11T09:03:44;98560.22;;;16.73;38.54
70434;BME280;57876;47.792;12.960;2023-02-11T09:06:13;98559.66;;;16.77;38.48
70434;BME280;57876;47.792;12.960;2023-02-11T09:08:40;98552.84;;;16.74;38.37
70434;BME280;57876;47.792;12.960;2023-02-11T09:11:05;98546.84;;;16.77;38.02
70434;BME280;57876;47.792;12.960;2023-02-11T09:13:32;98531.56;;;16.71;38.29
70434;BME280;57876;47.792;12.960;2023-02-11T09:16:02;98531.81;;;16.69;38.32
70434;BME280;57876;47.792;12.960;2023-02-11T09:18:27;98551.47;;;16.77;38.11
70434;BME280;57876;47.792;12.960;2023-02-11T09:20:52;98540.00;;;16.74;38.55
70434;BME280;57876;47.792;12.960;2023-02-11T09:23:16;98537.81;;;16.77;37.96
70434;BME280;57876;47.792;12.960;2023-02-11T09:25:41;98544.91;;;16.78;38.33
70434;BME280;57876;47.792;12.960;2023-02-11T09:28:06;98540.81;;;16.80;38.45
70434;BME280;57876;47.792;12.960;2023-02-11T09:30:31;98546.00;;;16.82;38.39
70434;BME280;57876;47.792;12.960;2023-02-11T09:32:55;98546.56;;;16.79;38.41
70434;BME280;57876;47.792;12.960;2023-02-11T09:35:20;98550.66;;;16.81;38.01
70434;BME280;57876;47.792;12.960;2023-02-11T09:37:44;98539.72;;;16.81;38.47
70434;BME280;57876;47.792;12.960;2023-02-11T09:40:09;98544.09;;;16.82;38.01
70434;BME280;57876;47.792;12.960;2023-02-11T09:45:18;98548.44;;;16.83;38.10
70434;BME280;57876;47.792;12.960;2023-02-11T09:48:02;98540.81;;;16.80;37.85
70434;BME280;57876;47.792;12.960;2023-02-11T09:50:32;98540.00;;;16.80;37.85
70434;BME280;57876;47.792;12.960;2023-02-11T09:53:04;98531.25;;;16.78;38.01
70434;BME280;57876;47.792;12.960;2023-02-11T09:55:35;98532.59;;;16.75;38.31
70434;BME280;57876;47.792;12.960;2023-02-11T09:58:06;98537.56;;;16.78;38.26
70434;BME280;57876;47.792;12.960;2023-02-11T10:00:44;98538.06;;;16.75;38.37
70434;BME280;57876;47.792;12.960;2023-02-11T10:06:10;98524.16;;;16.71;38.03
70434;BME280;57876;47.792;12.960;2023-02-11T10:14:24;98518.44;;;16.73;37.93
70434;BME280;57876;47.792;12.960;2023-02-11T10:23:08;98528.25;;;16.74;37.68
70434;BME280;57876;47.792;12.960;2023-02-11T10:25:38;98527.16;;;16.75;38.17
70434;BME280;57876;47.792;12.960;2023-02-11T10:28:31;98524.13;;;16.77;37.76
70434;BME280;57876;47.792;12.960;2023-02-11T10:30:57;98524.13;;;16.77;38.17
70434;BME280;57876;47.792;12.960;2023-02-11T10:33:26;98506.94;;;16.76;38.09
70434;BME280;57876;47.792;12.960;2023-02-11T10:35:52;98500.38;;;16.77;37.74
70434;BME280;57876;47.792;12.960;2023-02-11T10:38:16;98492.72;;;16.74;37.98
70434;BME280;57876;47.792;12.960;2023-02-11T10:40:41;98481.81;;;16.74;38.14
70434;BME280;57876;47.792;12.960;2023-02-11T10:43:10;98485.06;;;16.76;38.13
70434;BME280;57876;47.792;12.960;2023-02-11T10:45:43;98488.88;;;16.75;37.72
70434;BME280;57876;47.792;12.960;2023-02-11T10:48:37;98483.44;;;16.75;37.63
70434;BME280;57876;47.792;12.960;2023-02-11T10:51:11;98476.09;;;16.70;37.54
70434;BME280;57876;47.792;12.960;2023-02-11T10:53:37;98466.78;;;16.71;37.52
70434;BME280;57876;47.792;12.960;2023-02-11T10:56:04;98468.41;;;16.72;38.02
70434;BME280;57876;47.792;12.960;2023-02-11T10:58:30;98461.31;;;16.71;38.19
70434;BME280;57876;47.792;12.960;2023-02-11T11:00:57;98449.59;;;16.71;37.96
70434;BME280;57876;47.792;12.960;2023-02-11T11:03:24;98441.66;;;16.69;37.67
70434;BME280;57876;47.792;12.960;2023-02-11T11:05:58;98455.88;;;16.71;37.77
70434;BME280;57876;47.792;12.960;2023-02-11T11:08:47;98451.25;;;16.67;37.85
70434;BME280;57876;47.792;12.960;2023-02-11T11:11:17;98454.28;;;16.65;37.53
70434;BME280;57876;47.792;12.960;2023-02-11T11:14:01;98460.78;;;16.69;37.80
70434;BME280;57876;47.792;12.960;2023-02-11T11:16:31;98445.50;;;16.68;37.76
70434;BME280;57876;47.792;12.960;2023-02-11T11:21:46;98445.75;;;16.72;37.98
70434;BME280;57876;47.792;12.960;2023-02-11T11:24:21;98439.75;;;16.70;38.04
70434;BME280;57876;47.792;12.960;2023-02-11T11:27:03;98426.66;;;16.67;38.20
70434;BME280;57876;47.792;12.960;2023-02-11T11:29:42;98430.16;;;16.72;37.78
70434;BME280;57876;47.792;12.960;2023-02-11T11:32:21;98423.88;;;16.77;38.08
70434;BME280;57876;47.792;12.960;2023-02-11T11:34:50;98412.38;;;16.75;38.38
70434;BME280;57876;47.792;12.960;2023-02-11T11:37:28;98421.16;;;16.77;37.93
70434;BME280;57876;47.792;12.960;2023-02-11T11:42:39;98441.06;;;16.83;38.35
70434;BME280;57876;47.792;12.960;2023-02-11T11:48:00;98431.47;;;16.85;38.06
70434;BME280;57876;47.792;12.960;2023-02-11T11:50:51;98433.63;;;16.88;38.06
70434;BME280;57876;47.792;12.960;2023-02-11T11:53:24;98421.06;;;16.87;38.35
70434;BME280;57876;47.792;12.960;2023-02-11T11:56:15;98423.78;;;16.92;38.32
70434;BME280;57876;47.792;12.960;2023-02-11T11:58:41;98421.56;;;16.94;38.34
70434;BME280;57876;47.792;12.960;2023-02-11T12:09:55;98415.53;;;16.98;38.47
70434;BME280;57876;47.792;12.960;2023-02-11T12:15:42;98399.38;;;17.01;38.83
70434;BME280;57876;47.792;12.960;2023-02-11T12:26:10;98382.72;;;16.98;38.72
70434;BME280;57876;47.792;12.960;2023-02-11T12:51:04;98360.16;;;17.88;38.38
70434;BME280;57876;47.792;12.960;2023-02-11T12:56:34;98342.00;;;17.49;37.76
70434;BME280;57876;47.792;12.960;2023-02-11T12:59:04;98345.16;;;17.37;37.89
70434;BME280;57876;47.792;12.960;2023-02-11T13:01:34;98344.72;;;17.25;37.88
70434;BME280;57876;47.792;12.960;2023-02-11T13:04:09;98354.63;;;17.21;37.70
70434;BME280;57876;47.792;12.960;2023-02-11T13:06:39;98356.06;;;17.13;37.89
70434;BME280;57876;47.792;12.960;2023-02-11T13:09:12;98334.81;;;17.05;37.79
70434;BME280;57876;47.792;12.960;2023-02-11T13:11:48;98340.03;;;17.02;37.66
70434;BME280;57876;47.792;12.960;2023-02-11T13:14:22;98342.00;;;16.96;37.91
70434;BME280;57876;47.792;12.960;2023-02-11T13:16:49;98348.59;;;16.95;37.76
70434;BME280;57876;47.792;12.960;2023-02-11T13:21:59;98324.91;;;16.85;37.47
70434;BME280;57876;47.792;12.960;2023-02-11T13:37:50;98341.34;;;16.75;37.32
70434;BME280;57876;47.792;12.960;2023-02-11T13:42:55;98313.53;;;16.73;37.48
70434;BME280;57876;47.792;12.960;2023-02-11T13:47:55;98319.59;;;16.65;37.39
70434;BME280;57876;47.792;12.960;2023-02-11T13:50:22;98333.19;;;16.70;37.15
70434;BME280;57876;47.792;12.960;2023-02-11T13:52:56;98328.88;;;16.64;37.32
70434;BME280;57876;47.792;12.960;2023-02-11T13:55:22;98329.94;;;16.68;36.84
70434;BME280;57876;47.792;12.960;2023-02-11T14:19:45;98354.28;;;16.64;36.68
70434;BME280;57876;47.792;12.960;2023-02-11T14:22:29;98364.91;;;16.71;36.61
70434;BME280;57876;47.792;12.960;2023-02-11T14:24:59;98361.91;;;16.67;36.90
70434;BME280;57876;47.792;12.960;2023-02-11T14:27:39;98373.66;;;16.68;36.71
70434;BME280;57876;47.792;12.960;2023-02-11T14:30:13;98379.94;;;16.68;37.03
70434;BME280;57876;47.792;12.960;2023-02-11T14:36:04;98365.97;;;16.70;37.18
70434;BME280;57876;47.792;12.960;2023-02-11T14:38:59;98374.44;;;16.73;36.91
70434;BME280;57876;47.792;12.960;2023-02-11T14:41:30;98361.34;;;16.70;36.78
70434;BME280;57876;47.792;12.960;2023-02-11T14:44:02;98350.16;;;16.67;36.78
70434;BME280;57876;47.792;12.960;2023-02-11T14:46:28;98342.22;;;16.70;36.88
70434;BME280;57876;47.792;12.960;2023-02-11T14:48:59;98362.16;;;16.71;36.84
70434;BME280;57876;47.792;12.960;2023-02-11T14:51:37;98368.44;;;16.71;36.85
70434;BME280;57876;47.792;12.960;2023-02-11T14:54:24;98357.50;;;16.71;37.06
70434;BME280;57876;47.792;12.960;2023-02-11T14:57:07;98358.09;;;16.68;36.79
70434;BME280;57876;47.792;12.960;2023-02-11T14:59:32;98361.34;;;16.70;36.82
70434;BME280;57876;47.792;12.960;2023-02-11T15:01:56;98361.91;;;16.67;37.20
70434;BME280;57876;47.792;12.960;2023-02-11T15:04:32;98354.00;;;16.66;37.01
70434;BME280;57876;47.792;12.960;2023-02-11T15:07:03;98352.63;;;16.68;36.96
70434;BME280;57876;47.792;12.960;2023-02-11T15:09:46;98347.97;;;16.69;37.12
70434;BME280;57876;47.792;12.960;2023-02-11T15:12:22;98350.16;;;16.67;37.01
70434;BME280;57876;47.792;12.960;2023-02-11T15:14:51;98346.91;;;16.65;37.13
70434;BME280;57876;47.792;12.960;2023-02-11T15:17:21;98343.06;;;16.66;37.00
70434;BME280;57876;47.792;12.960;2023-02-11T15:19:50;98341.47;;;16.65;37.08
70434;BME280;57876;47.792;12.960;2023-02-11T15:22:25;98344.69;;;16.67;37.06
70434;BME280;57876;47.792;12.960;2023-02-11T15:32:58;98354.84;;;16.61;37.36
70434;BME280;57876;47.792;12.960;2023-02-11T15:35:39;98363.81;;;16.67;37.56
70434;BME280;57876;47.792;12.960;2023-02-11T15:38:04;98356.44;;;16.67;37.01
70434;BME280;57876;47.792;12.960;2023-02-11T15:40:31;98356.75;;;16.66;36.91
70434;BME280;57876;47.792;12.960;2023-02-11T15:45:32;98340.88;;;16.68;37.00
70434;BME280;57876;47.792;12.960;2023-02-11T15:50:42;98356.19;;;16.64;37.20